Time;durP1;ratioP1;P1;durP2;ratioP2;P2;SDS_P1;SDS_P2;PMS_P1;PMS_P2;Temp;Humidity;BMP_temperature;BMP_pressure;BME280_temperature;BME280_humidity;BME280_pressure;Samples;Min_cycle;Max_cycle;Signal;HPM_P1;HPM_P2
2021/01/20 00:01:45;;;;;;;66.10;25.67;;;;;;;-4.50;81.54;97608.09;5004282;28;20184;-67
2021/01/20 00:04:11;;;;;;;68.30;23.38;;;;;;;-5.40;81.51;97467.88;5003369;28;20045;-68
2021/01/20 00:06:36;;;;;;;77.95;30.25;;;;;;;-4.54;81.13;97654.84;5002679;28;20057;-67
2021/01/20 00:09:02;;;;;;;57.30;23.33;;;;;;;-5.49;80.97;97453.25;5004848;28;20084;-67
2021/01/20 00:11:29;;;;;;;26.45;11.43;;;;;;;-4.61;81.14;97611.81;5004719;28;20084;-68
2021/01/20 00:13:55;;;;;;;32.78;12.80;;;;;;;-4.63;81.43;97607.75;5004930;28;20029;-69
2021/01/20 00:16:20;;;;;;;27.80;11.55;;;;;;;-4.70;81.08;97614.22;5004456;28;20396;-67
2021/01/20 00:18:46;;;;;;;26.90;10.23;;;;;;;-4.69;80.90;97615.84;5004943;28;20052;-68
2021/01/20 00:21:11;;;;;;;35.20;12.73;;;;;;;-5.80;81.19;97424.38;5004349;28;20034;-67
2021/01/20 00:23:37;;;;;;;32.95;12.88;;;;;;;-5.52;81.09;97459.16;5002933;28;20053;-67
2021/01/20 00:26:02;;;;;;;29.73;11.15;;;;;;;-4.85;82.16;97605.97;5002736;28;20041;-68
2021/01/20 00:28:28;;;;;;;32.00;12.75;;;;;;;-4.88;82.00;97606.50;5004422;28;20457;-68
2021/01/20 00:30:56;;;;;;;31.83;13.82;;;;;;;-5.41;82.31;97558.00;5002761;28;20573;-67
2021/01/20 00:33:22;;;;;;;31.80;14.05;;;;;;;-5.06;82.93;97609.59;5004740;28;20052;-68
2021/01/20 00:35:48;;;;;;;32.38;13.00;;;;;;;-5.56;83.24;97538.97;5004189;28;20057;-68
2021/01/20 00:38:13;;;;;;;36.65;11.95;;;;;;;-4.95;82.89;97603.19;5004523;28;20046;-67
2021/01/20 00:40:38;;;;;;;20.08;7.40;;;;;;;-4.95;83.04;97588.91;5002518;28;20033;-67
2021/01/20 00:43:04;;;;;;;25.88;9.95;;;;;;;-4.81;82.46;97612.50;5004517;28;20053;-68
2021/01/20 00:45:29;;;;;;;20.88;9.15;;;;;;;-4.95;82.22;97570.78;5004013;28;20033;-66
2021/01/20 00:47:55;;;;;;;16.13;6.53;;;;;;;-5.39;82.16;97501.88;5004335;28;20060;-66
2021/01/20 00:50:20;;;;;;;21.95;7.65;;;;;;;-4.78;81.78;97595.78;5002543;28;20113;-66
2021/01/20 00:52:45;;;;;;;21.98;9.18;;;;;;;-4.84;81.47;97617.63;5004779;28;20440;-66
2021/01/20 00:55:14;;;;;;;32.22;12.82;;;;;;;-5.18;80.89;97562.22;5002796;28;20487;-66
2021/01/20 00:57:39;;;;;;;27.20;10.65;;;;;;;-5.58;81.22;97516.81;5003290;28;20092;-67
2021/01/20 01:00:06;;;;;;;22.73;8.93;;;;;;;-4.96;81.02;97615.06;5003050;28;20050;-68
2021/01/20 01:02:31;;;;;;;26.20;10.75;;;;;;;-5.01;81.51;97612.34;5002979;28;20087;-67
2021/01/20 01:04:57;;;;;;;26.00;11.35;;;;;;;-5.38;81.93;97557.50;5004665;28;20056;-66
2021/01/20 01:07:22;;;;;;;59.38;23.75;;;;;;;-5.88;82.15;97478.81;5002440;28;20041;-66
2021/01/20 01:09:47;;;;;;;66.63;28.17;;;;;;;-4.98;81.81;97628.03;5007310;28;20041;-67
2021/01/20 01:12:13;;;;;;;48.83;18.00;;;;;;;-5.17;81.77;97585.47;5005673;28;20025;-67
2021/01/20 01:14:38;;;;;;;29.55;12.40;;;;;;;-5.72;82.03;97518.31;5008344;28;20121;-67
2021/01/20 01:17:04;;;;;;;25.90;10.52;;;;;;;-5.79;81.95;97493.44;5005867;28;20044;-66
2021/01/20 01:19:29;;;;;;;23.33;9.70;;;;;;;-5.02;82.61;97621.50;5006487;28;20037;-67
2021/01/20 01:21:54;;;;;;;24.15;9.50;;;;;;;-8.39;81.30;97072.50;5007333;28;20022;-67
2021/01/20 01:24:20;;;;;;;20.17;8.32;;;;;;;-4.96;80.99;97620.47;5007888;28;20038;-67
2021/01/20 01:26:45;;;;;;;36.15;12.73;;;;;;;-5.03;80.54;97625.31;4994837;28;20239;-68
2021/01/20 01:29:11;;;;;;;54.15;17.92;;;;;;;-5.05;80.56;97622.03;4988053;28;20038;-67
2021/01/20 01:31:36;;;;;;;26.02;10.80;;;;;;;-6.65;81.17;97372.41;4987708;28;20105;-69
2021/01/20 01:34:01;;;;;;;19.90;8.48;;;;;;;-5.17;82.55;97621.38;4986767;28;20042;-67
2021/01/20 01:36:27;;;;;;;17.17;6.78;;;;;;;-5.51;82.54;97655.06;4987480;28;20061;-67
2021/01/20 01:38:53;;;;;;;13.88;6.40;;;;;;;-5.12;82.56;97626.81;4988234;28;20405;-67
2021/01/20 01:41:18;;;;;;;19.52;8.25;;;;;;;-5.49;81.92;97571.97;4987566;28;20038;-68
2021/01/20 01:43:43;;;;;;;21.35;9.60;;;;;;;-5.16;81.75;97638.38;4988292;28;20054;-67
2021/01/20 01:46:09;;;;;;;22.10;10.07;;;;;;;-5.19;82.56;97634.34;4986203;28;20034;-66
2021/01/20 01:48:34;;;;;;;63.78;31.52;;;;;;;-5.17;82.61;97632.16;4996221;28;20091;-67
2021/01/20 01:51:00;;;;;;;48.05;21.70;;;;;;;-5.54;82.67;97595.38;5007071;28;20568;-66
2021/01/20 01:53:25;;;;;;;25.95;11.57;;;;;;;-5.76;83.07;97528.00;5005893;28;20065;-66
2021/01/20 01:55:51;;;;;;;27.30;12.93;;;;;;;-5.38;82.68;97611.47;5006759;28;20041;-66
2021/01/20 01:58:17;;;;;;;38.85;17.02;;;;;;;-5.47;82.54;97591.38;5007111;28;20132;-67
2021/01/20 02:00:42;;;;;;;48.05;20.00;;;;;;;-5.15;82.50;97632.72;5006748;28;20042;-67
2021/01/20 02:03:08;;;;;;;123.15;42.15;;;;;;;-5.11;82.21;97633.88;5007266;28;20508;-67
2021/01/20 02:05:33;;;;;;;58.78;21.15;;;;;;;-5.08;82.37;97632.53;5006715;28;20025;-66
2021/01/20 02:08:01;;;;;;;27.08;11.70;;;;;;;-5.24;82.15;97618.09;5007135;28;20033;-67
2021/01/20 02:10:27;;;;;;;29.92;11.82;;;;;;;-5.44;83.00;97599.00;5005087;28;20065;-67
2021/01/20 02:13:03;;;;;;;22.20;11.00;;;;;;;-5.20;82.72;97629.97;5005384;28;20087;-66
2021/01/20 02:15:57;;;;;;;31.27;14.18;;;;;;;-5.24;82.08;97618.09;5006312;28;20069;-67
2021/01/20 02:18:27;;;;;;;20.20;9.50;;;;;;;-5.30;83.54;97624.50;5006852;28;20052;-66
2021/01/20 02:21:17;;;;;;;17.27;6.40;;;;;;;-5.32;82.99;97626.63;5005441;28;20131;-67
2021/01/20 02:23:44;;;;;;;22.48;8.32;;;;;;;-5.32;82.92;97615.84;5005257;28;20140;-67
2021/01/20 02:26:19;;;;;;;26.08;11.05;;;;;;;-5.37;84.02;97613.09;5004742;28;20045;-67
2021/01/20 02:29:07;;;;;;;23.83;9.07;;;;;;;-5.28;82.92;97632.34;5006632;28;20042;-67
2021/01/20 02:31:33;;;;;;;27.50;11.60;;;;;;;-5.95;83.64;97513.28;5006141;28;20104;-67
2021/01/20 02:34:03;;;;;;;24.05;10.43;;;;;;;-5.33;83.57;97608.00;5005329;28;20066;-67
2021/01/20 02:36:31;;;;;;;24.70;11.75;;;;;;;-5.21;82.23;97606.78;5006105;28;20520;-66
2021/01/20 02:38:57;;;;;;;29.98;14.88;;;;;;;-5.61;83.07;97584.78;5005260;28;20129;-66
2021/01/20 02:41:28;;;;;;;38.42;17.60;;;;;;;-5.24;83.07;97607.28;5006193;28;20144;-67
2021/01/20 02:43:54;;;;;;;23.90;9.88;;;;;;;-5.66;82.74;97536.19;5006529;28;20073;-67
2021/01/20 02:46:20;;;;;;;26.17;10.32;;;;;;;-5.41;83.37;97605.75;5006046;28;20037;-66
2021/01/20 02:48:50;;;;;;;28.50;11.30;;;;;;;-5.18;82.22;97597.31;5004649;28;20034;-66
2021/01/20 02:51:35;;;;;;;49.88;19.13;;;;;;;-5.42;83.02;97604.94;5003965;28;20756;-66
2021/01/20 02:54:03;;;;;;;17.60;7.00;;;;;;;-5.40;82.07;97602.81;4988881;28;20062;-68
2021/01/20 02:56:31;;;;;;;21.98;8.40;;;;;;;-5.41;82.78;97601.19;5005840;28;20030;-67
2021/01/20 02:59:00;;;;;;;30.10;12.80;;;;;;;-5.57;82.01;97595.88;5006293;28;20056;-67
2021/01/20 03:01:28;;;;;;;26.33;11.60;;;;;;;-5.51;82.54;97611.88;5005590;28;20440;-67
2021/01/20 03:03:57;;;;;;;17.70;7.43;;;;;;;-5.64;83.04;97574.50;5003859;28;20038;-66
2021/01/20 03:06:22;;;;;;;27.92;10.02;;;;;;;-5.44;82.51;97596.31;5005095;28;20065;-67
2021/01/20 03:08:49;;;;;;;20.02;8.15;;;;;;;-5.90;83.31;97524.13;5004083;28;20622;-66
2021/01/20 03:11:14;;;;;;;18.23;7.70;;;;;;;-5.38;83.98;97611.47;5005194;28;20111;-67
2021/01/20 03:13:43;;;;;;;36.70;14.70;;;;;;;-5.94;83.16;97504.09;5006166;28;20480;-67
2021/01/20 03:16:08;;;;;;;25.15;10.95;;;;;;;-5.46;84.38;97593.03;5005415;28;20095;-67
2021/01/20 03:18:34;;;;;;;18.17;7.70;;;;;;;-6.17;84.13;97488.25;5004581;28;20030;-67
2021/01/20 03:20:59;;;;;;;32.50;13.05;;;;;;;-5.60;84.36;97591.81;5005169;28;20489;-66
2021/01/20 03:23:25;;;;;;;23.13;8.77;;;;;;;-5.81;83.68;97552.22;5005861;28;20049;-67
2021/01/20 03:25:50;;;;;;;20.92;8.55;;;;;;;-5.42;84.18;97626.53;4998862;28;20085;-66
2021/01/20 03:28:16;;;;;;;30.15;11.52;;;;;;;-5.42;84.22;97648.13;4984446;28;20039;-67
2021/01/20 03:30:41;;;;;;;40.63;16.27;;;;;;;-5.33;83.82;97622.31;4984877;28;20034;-66
2021/01/20 03:33:07;;;;;;;45.70;16.30;;;;;;;-5.35;83.24;97632.56;5000766;28;20100;-66
2021/01/20 03:35:34;;;;;;;58.53;21.73;;;;;;;-5.33;82.64;97625.03;4985503;28;20049;-68
2021/01/20 03:38:01;;;;;;;71.93;26.90;;;;;;;-5.34;82.45;97626.06;4985960;28;20066;-66
2021/01/20 03:40:26;;;;;;;51.30;19.67;;;;;;;-6.02;82.16;97509.94;4985190;28;20235;-67
2021/01/20 03:42:52;;;;;;;59.72;22.73;;;;;;;-5.28;82.23;97622.34;4985836;28;20468;-68
2021/01/20 03:45:17;;;;;;;61.88;22.60;;;;;;;-5.29;82.74;97618.03;4985150;28;20030;-65
2021/01/20 03:47:42;;;;;;;66.07;26.00;;;;;;;-5.48;82.60;97595.16;4985770;28;20027;-66
2021/01/20 03:50:08;;;;;;;58.10;22.95;;;;;;;-5.41;82.56;97598.50;5003118;28;20022;-67
2021/01/20 03:52:34;;;;;;;47.00;18.42;;;;;;;-5.20;82.07;97619.19;5005114;28;20037;-66
2021/01/20 03:55:00;;;;;;;46.92;17.13;;;;;;;-5.21;82.26;97622.97;5003574;28;20038;-65
2021/01/20 03:57:25;;;;;;;38.20;12.63;;;;;;;-5.71;81.94;97519.97;5003318;28;20488;-67
2021/01/20 03:59:51;;;;;;;29.45;11.38;;;;;;;-5.28;82.29;97611.56;5005207;28;20588;-67
2021/01/20 04:02:16;;;;;;;30.10;10.95;;;;;;;-5.08;82.64;97627.94;5003067;28;20030;-66
2021/01/20 04:04:42;;;;;;;27.02;10.38;;;;;;;-5.13;82.85;97629.78;5001149;28;20032;-68
2021/01/20 04:07:07;;;;;;;35.15;12.10;;;;;;;-5.08;82.14;97637.94;4985222;28;20102;-65
2021/01/20 04:09:33;;;;;;;31.40;13.40;;;;;;;-5.06;82.75;97625.00;4985526;28;20058;-66
2021/01/20 04:11:58;;;;;;;33.97;12.40;;;;;;;-4.91;82.01;97639.44;4985028;28;20425;-66
2021/01/20 04:14:24;;;;;;;37.47;15.82;;;;;;;-4.83;81.22;97641.66;4985611;28;20537;-67
2021/01/20 04:16:49;;;;;;;46.85;18.27;;;;;;;-5.12;81.54;97610.63;4984995;28;20034;-66
2021/01/20 04:19:15;;;;;;;47.30;16.55;;;;;;;-5.03;81.20;97609.09;4985257;28;20073;-68
2021/01/20 04:21:40;;;;;;;63.08;22.27;;;;;;;-4.86;81.74;97642.19;4984675;28;20069;-66
2021/01/20 04:24:06;;;;;;;72.03;24.60;;;;;;;-4.82;81.64;97627.06;4985215;28;20041;-67
2021/01/20 04:26:32;;;;;;;69.38;27.73;;;;;;;-5.13;80.72;97579.31;4984398;28;20030;-66
2021/01/20 04:28:57;;;;;;;69.45;31.08;;;;;;;-4.81;80.67;97607.09;4985271;28;20038;-66
2021/01/20 04:31:22;;;;;;;65.22;24.98;;;;;;;-4.68;81.07;97633.66;4984524;28;20081;-66
2021/01/20 04:33:48;;;;;;;49.53;20.90;;;;;;;-4.55;80.89;97623.50;4985049;28;20480;-66
2021/01/20 04:36:13;;;;;;;68.57;23.83;;;;;;;-4.63;80.60;97607.75;4984863;28;20097;-66
2021/01/20 04:38:39;;;;;;;69.63;23.23;;;;;;;-4.48;80.43;97615.97;4985050;28;20038;-67
2021/01/20 04:41:04;;;;;;;52.58;18.63;;;;;;;-4.52;80.28;97625.69;4984376;28;20045;-67
2021/01/20 04:43:29;;;;;;;107.63;31.80;;;;;;;-4.42;80.15;97631.13;4987872;28;20038;-67
2021/01/20 04:45:55;;;;;;;122.70;34.92;;;;;;;-4.39;80.59;97620.63;4988628;28;20473;-68
2021/01/20 04:48:31;;;;;;;63.70;22.77;;;;;;;-4.36;80.75;97633.59;4992039;28;20030;-68
2021/01/20 04:50:57;;;;;;;234.38;57.78;;;;;;;-4.42;80.58;97604.91;4987337;28;20041;-67
2021/01/20 04:53:24;;;;;;;189.10;53.00;;;;;;;-4.23;80.33;97633.16;4987332;28;20776;-68
2021/01/20 04:55:52;;;;;;;253.88;67.47;;;;;;;-4.15;79.67;97621.00;4988536;28;20072;-69
2021/01/20 04:58:18;;;;;;;206.25;55.40;;;;;;;-4.70;79.58;97533.16;4988885;28;20045;-70
2021/01/20 05:00:44;;;;;;;133.35;40.85;;;;;;;-4.54;79.37;97557.53;4988236;28;20107;-67
2021/01/20 05:03:10;;;;;;;74.82;27.65;;;;;;;-4.05;79.79;97645.41;4988846;28;20046;-68
2021/01/20 05:05:37;;;;;;;48.75;20.08;;;;;;;-4.09;80.21;97637.00;4986638;28;20030;-67
2021/01/20 05:08:05;;;;;;;30.30;14.05;;;;;;;-4.07;79.91;97632.16;4988728;28;20023;-67
2021/01/20 05:10:31;;;;;;;27.73;10.75;;;;;;;-4.10;79.82;97629.97;4988022;28;20046;-68
2021/01/20 05:12:57;;;;;;;46.22;17.60;;;;;;;-4.08;80.34;97627.00;4997352;28;20038;-67
2021/01/20 05:15:35;;;;;;;61.50;21.67;;;;;;;-4.45;80.06;97545.16;5007537;28;20045;-67
2021/01/20 05:18:05;;;;;;;86.38;29.23;;;;;;;-3.83;79.96;97629.81;5008039;28;20532;-67
2021/01/20 05:20:37;;;;;;;72.65;26.50;;;;;;;-4.57;78.55;97494.03;5022227;28;20026;-67
2021/01/20 05:23:07;;;;;;;111.33;38.30;;;;;;;-3.62;78.55;97642.38;5022921;28;20038;-67
2021/01/20 05:25:38;;;;;;;132.20;39.50;;;;;;;-6.71;78.69;97141.84;5022283;28;20038;-68
2021/01/20 05:28:25;;;;;;;128.65;36.78;;;;;;;-3.54;79.14;97649.97;5022765;28;20104;-67
2021/01/20 05:30:56;;;;;;;210.45;59.20;;;;;;;-3.35;78.34;97659.25;5022085;28;20034;-67
2021/01/20 05:33:27;;;;;;;166.70;48.47;;;;;;;-3.84;78.99;97601.16;5022464;28;20038;-68
2021/01/20 05:36:12;;;;;;;143.00;43.95;;;;;;;-3.35;79.01;97649.19;5007478;28;20521;-69
2021/01/20 05:38:47;;;;;;;112.40;38.95;;;;;;;-3.55;78.57;97599.59;5008097;28;20064;-67
2021/01/20 05:41:18;;;;;;;98.30;37.13;;;;;;;-3.19;78.33;97647.34;5021858;28;20037;-68
2021/01/20 05:43:44;;;;;;;85.97;33.70;;;;;;;-3.54;78.48;97595.84;5007459;28;20112;-68
2021/01/20 05:46:10;;;;;;;66.85;22.65;;;;;;;-3.54;78.74;97595.84;5021821;28;20132;-67
2021/01/20 05:48:47;;;;;;;96.75;38.03;;;;;;;-3.12;78.52;97664.97;5007154;28;20084;-68
2021/01/20 05:51:12;;;;;;;122.50;47.35;;;;;;;-3.18;78.87;97665.25;5005252;28;20459;-69
2021/01/20 05:53:52;;;;;;;131.38;49.45;;;;;;;-4.01;79.04;97549.13;5006963;28;20034;-67
2021/01/20 05:56:27;;;;;;;128.20;49.88;;;;;;;-4.48;78.43;97448.38;5007158;28;20036;-69
2021/01/20 05:58:53;;;;;;;147.50;55.00;;;;;;;-4.11;78.18;97495.03;5007022;28;20049;-69
2021/01/20 06:01:19;;;;;;;108.82;44.80;;;;;;;-2.87;78.62;97694.00;5006237;28;20092;-68
2021/01/20 06:03:44;;;;;;;66.03;27.27;;;;;;;-3.55;78.85;97600.44;4995483;28;20049;-67
2021/01/20 06:06:10;;;;;;;48.10;21.17;;;;;;;-3.03;79.04;97689.63;5005819;28;20030;-67
2021/01/20 06:08:36;;;;;;;93.30;34.25;;;;;;;-4.42;79.41;97463.53;5000991;28;20568;-65
2021/01/20 06:11:05;;;;;;;87.30;32.85;;;;;;;-2.97;79.09;97688.56;5000073;28;20046;-66
2021/01/20 06:13:32;;;;;;;48.75;20.35;;;;;;;-2.71;78.48;97687.53;4985362;28;20061;-65
2021/01/20 06:16:00;;;;;;;59.65;26.10;;;;;;;-3.07;78.63;97645.22;4985268;28;20096;-64
2021/01/20 06:18:32;;;;;;;76.20;31.35;;;;;;;-3.16;78.84;97636.78;4986966;28;20112;-66
2021/01/20 06:20:57;;;;;;;56.43;23.53;;;;;;;-2.67;78.98;97694.00;4985447;28;20042;-65
2021/01/20 06:23:27;;;;;;;67.50;32.70;;;;;;;-2.82;78.78;97666.91;4990643;28;20042;-65
2021/01/20 06:26:03;;;;;;;89.22;38.25;;;;;;;-3.10;78.25;97605.13;5000487;28;20120;-66
2021/01/20 06:28:30;;;;;;;89.88;40.22;;;;;;;-2.36;76.87;97705.69;5021811;28;20038;-66
2021/01/20 06:30:57;;;;;;;84.80;36.88;;;;;;;-3.42;76.97;97555.78;5006222;28;20129;-62
2021/01/20 06:33:28;;;;;;;93.60;39.25;;;;;;;-2.49;77.80;97701.63;5004904;28;20044;-63
2021/01/20 06:35:54;;;;;;;80.05;32.58;;;;;;;-2.26;77.24;97724.69;5004478;28;20041;-64
2021/01/20 06:38:28;;;;;;;57.08;25.92;;;;;;;-2.59;79.42;97723.31;5006145;28;20073;-64
2021/01/20 06:41:07;;;;;;;55.78;24.60;;;;;;;-2.32;79.66;97723.84;4997285;28;20112;-64
2021/01/20 06:43:35;;;;;;;51.97;19.55;;;;;;;-2.48;79.17;97719.50;4987140;28;20104;-66
2021/01/20 06:46:25;;;;;;;53.17;19.95;;;;;;;-2.67;82.22;97715.69;5001150;28;20121;-67
2021/01/20 06:48:54;;;;;;;48.00;17.85;;;;;;;-2.32;81.45;97707.59;4988065;28;20042;-71
2021/01/20 06:51:24;;;;;;;35.78;13.98;;;;;;;-2.53;79.99;97643.59;5004134;28;20088;-71
2021/01/20 06:54:02;;;;;;;28.10;10.73;;;;;;;-2.22;80.45;97704.88;5005943;28;20073;-67
2021/01/20 06:56:31;;;;;;;31.10;12.02;;;;;;;-2.57;82.02;97710.28;4999503;28;20042;-63
2021/01/20 06:59:15;;;;;;;33.38;12.93;;;;;;;-2.00;80.16;97716.25;4993438;28;20468;-68
2021/01/20 07:01:41;;;;;;;30.90;12.50;;;;;;;-2.06;79.76;97652.22;4999705;28;20104;-67
2021/01/20 07:04:07;;;;;;;24.85;12.23;;;;;;;-1.90;77.86;97637.50;5006271;28;20077;-64
2021/01/20 07:06:35;;;;;;;26.55;13.00;;;;;;;-2.02;77.49;97642.41;5005378;28;20041;-64
2021/01/20 07:09:08;;;;;;;39.15;15.82;;;;;;;-1.77;78.49;97714.84;5005224;28;20100;-62
2021/01/20 07:11:54;;;;;;;;;;;;;;;-1.98;78.32;97719.50;5000980;28;20436;-66
2021/01/20 07:14:29;;;;;;;30.60;10.90;;;;;;;-1.65;78.68;97702.59;4997846;28;19925;-63
2021/01/20 07:16:55;;;;;;;20.48;7.65;;;;;;;-1.70;78.28;97670.03;5002938;28;20432;-68
2021/01/20 07:19:22;;;;;;;18.13;7.90;;;;;;;-1.46;75.93;97656.63;4991547;28;20168;-68
2021/01/20 07:21:48;;;;;;;27.17;10.95;;;;;;;-2.25;76.94;97593.38;4999824;28;20038;-64
2021/01/20 07:24:14;;;;;;;28.48;10.93;;;;;;;-1.72;76.64;97636.91;4985796;28;20069;-63
2021/01/20 07:26:40;;;;;;;37.00;14.38;;;;;;;-1.49;77.36;97710.69;4984302;28;20458;-61
2021/01/20 07:29:18;;;;;;;37.72;14.13;;;;;;;-0.88;75.71;97703.84;4986193;28;20145;-63
2021/01/20 07:31:48;;;;;;;36.38;17.55;;;;;;;-0.69;74.99;97673.00;5003257;28;20033;-62
2021/01/20 07:34:14;;;;;;;35.67;16.92;;;;;;;-1.00;73.58;97594.66;5005756;28;20124;-62
2021/01/20 07:36:40;;;;;;;75.03;29.73;;;;;;;0.11;71.83;97709.63;5004635;28;20068;-65
2021/01/20 07:39:20;;;;;;;55.75;22.23;;;;;;;0.24;69.45;97698.03;5002899;28;20128;-66
2021/01/20 07:41:57;;;;;;;44.33;21.40;;;;;;;0.03;68.94;97648.41;5002691;28;20041;-63
2021/01/20 07:44:23;;;;;;;41.58;18.42;;;;;;;0.22;68.72;97708.44;5001362;28;20034;-63
2021/01/20 07:47:07;;;;;;;44.30;20.08;;;;;;;0.52;67.46;97705.34;4984862;28;20489;-63
2021/01/20 07:49:34;;;;;;;48.97;21.77;;;;;;;-0.07;68.19;97607.69;5003383;28;20421;-63
2021/01/20 07:52:10;;;;;;;38.03;18.90;;;;;;;-0.73;66.20;97439.97;5001711;28;20428;-63
2021/01/20 07:54:39;;;;;;;41.63;18.20;;;;;;;1.08;65.60;97717.19;5003475;28;20934;-62
2021/01/20 07:57:09;;;;;;;37.17;15.07;;;;;;;1.24;65.47;97726.81;4985936;28;20045;-62
2021/01/20 07:59:35;;;;;;;46.45;17.60;;;;;;;0.34;65.17;97571.78;5002651;28;20092;-64
2021/01/20 08:02:16;;;;;;;72.20;35.45;;;;;;;1.40;66.20;97705.56;5001870;28;20133;-63
2021/01/20 08:04:42;;;;;;;56.38;30.23;;;;;;;1.50;71.37;97716.34;5005205;28;20567;-63
2021/01/20 08:07:10;;;;;;;55.65;24.55;;;;;;;1.67;65.27;97715.81;5004269;28;20113;-62
2021/01/20 08:09:40;;;;;;;110.47;40.00;;;;;;;1.68;63.91;97722.88;5004342;28;20121;-61
2021/01/20 08:12:08;;;;;;;118.28;44.50;;;;;;;1.79;64.62;97729.84;5003818;28;20042;-62
2021/01/20 08:14:36;;;;;;;103.57;42.38;;;;;;;1.58;64.59;97673.91;4992957;28;20049;-62
2021/01/20 08:17:03;;;;;;;290.77;99.55;;;;;;;1.47;62.49;97629.59;4984163;28;20034;-64
2021/01/20 08:19:31;;;;;;;267.20;91.65;;;;;;;1.17;62.22;97542.78;4999876;28;20030;-67
2021/01/20 08:21:57;;;;;;;163.10;68.25;;;;;;;1.63;62.20;97635.63;4998896;28;20045;-63
2021/01/20 08:24:23;;;;;;;181.50;84.05;;;;;;;1.72;61.40;97636.53;4985192;28;20149;-64
2021/01/20 08:26:59;;;;;;;162.27;74.93;;;;;;;1.51;61.03;97593.22;4984495;28;20022;-67
2021/01/20 08:29:25;;;;;;;143.00;69.05;;;;;;;2.58;60.92;97726.78;4987919;28;20415;-65
2021/01/20 08:32:07;;;;;;;145.20;67.75;;;;;;;1.29;60.08;97563.03;5001971;28;20501;-65
2021/01/20 08:34:37;;;;;;;129.82;59.35;;;;;;;2.24;60.59;97731.78;5019281;28;20137;-64
2021/01/20 08:37:07;;;;;;;110.88;51.13;;;;;;;2.41;60.26;97707.41;5004082;28;20049;-65
2021/01/20 08:39:35;;;;;;;120.53;53.70;;;;;;;2.82;59.23;97733.69;4999870;28;20038;-63
2021/01/20 08:42:21;;;;;;;115.90;51.55;;;;;;;3.24;58.08;97724.31;4982759;28;20041;-64
2021/01/20 08:45:08;;;;;;;117.57;53.72;;;;;;;3.53;58.28;97722.03;4985074;28;20034;-64
2021/01/20 08:47:44;;;;;;;128.98;57.95;;;;;;;3.40;57.10;97673.59;4987104;28;20045;-63
2021/01/20 08:50:11;;;;;;;115.20;49.47;;;;;;;1.19;57.66;97317.66;4997154;28;20065;-62
2021/01/20 08:52:47;;;;;;;86.00;38.42;;;;;;;3.68;58.65;97709.94;5004500;28;20026;-67
2021/01/20 08:55:21;;;;;;;73.65;33.42;;;;;;;1.98;63.84;97662.28;4998483;28;20366;-65
2021/01/20 08:57:46;;;;;;;;;;;;;;;2.25;65.98;97711.53;5048840;28;20030;-66
2021/01/20 09:00:12;;;;;;;55.22;23.88;;;;;;;2.62;65.35;97700.47;5003752;28;19925;-63
2021/01/20 09:02:38;;;;;;;83.97;36.55;;;;;;;3.14;63.17;97688.97;5002858;28;20060;-62
2021/01/20 09:05:04;;;;;;;47.75;23.17;;;;;;;3.43;62.38;97683.91;5004330;28;20045;-66
2021/01/20 09:07:29;;;;;;;25.67;11.65;;;;;;;1.95;62.99;97580.94;5003561;28;20602;-62
2021/01/20 09:09:54;;;;;;;30.88;14.15;;;;;;;3.32;63.03;97688.00;5004212;28;20050;-63
2021/01/20 09:12:20;;;;;;;18.40;9.68;;;;;;;3.75;58.71;97702.91;4998056;28;20476;-63
2021/01/20 09:14:45;;;;;;;10.02;4.65;;;;;;;1.87;56.31;97513.38;4984618;28;20034;-63
2021/01/20 09:17:10;;;;;;;15.52;6.53;;;;;;;2.08;59.13;97503.66;4984270;28;20089;-62
2021/01/20 09:19:36;;;;;;;11.93;6.13;;;;;;;3.47;59.82;97684.13;4985005;28;20073;-63
2021/01/20 09:22:01;;;;;;;11.02;5.95;;;;;;;1.23;63.98;97463.25;4998800;28;20156;-63
2021/01/20 09:24:27;;;;;;;15.15;7.80;;;;;;;3.38;61.81;97686.81;4984123;28;20042;-63
2021/01/20 09:26:53;;;;;;;6.90;3.90;;;;;;;3.74;56.56;97673.88;4983386;28;20035;-63
2021/01/20 09:29:18;;;;;;;32.47;16.13;;;;;;;4.25;56.30;97668.72;4985523;28;20034;-62
2021/01/20 09:31:44;;;;;;;18.98;8.55;;;;;;;4.62;53.81;97668.28;5002645;28;20428;-63
2021/01/20 09:34:09;;;;;;;11.00;5.65;;;;;;;4.29;53.29;97538.13;4988394;28;20524;-62
2021/01/20 09:36:35;;;;;;;5.15;3.30;;;;;;;4.42;49.82;97657.88;4990924;28;20033;-64
2021/01/20 09:39:02;;;;;;;11.43;5.75;;;;;;;4.26;51.52;97538.75;5017154;28;20453;-63
2021/01/20 09:41:28;;;;;;;30.67;10.15;;;;;;;4.68;50.95;97578.38;5005022;28;20034;-65
2021/01/20 09:43:53;;;;;;;74.97;26.65;;;;;;;4.57;48.90;97594.34;5006302;28;20417;-65
2021/01/20 09:46:22;;;;;;;32.53;14.48;;;;;;;4.51;48.11;97554.47;5000081;28;20026;-63
2021/01/20 09:48:47;;;;;;;20.38;10.45;;;;;;;5.27;47.99;97651.00;4997182;28;20516;-66
2021/01/20 09:51:13;;;;;;;17.48;8.52;;;;;;;5.62;46.93;97645.22;4992672;28;20096;-66
2021/01/20 09:53:40;;;;;;;22.15;9.95;;;;;;;6.01;47.36;97641.47;4995408;28;20034;-64
2021/01/20 09:56:06;;;;;;;17.60;9.48;;;;;;;5.24;46.20;97569.25;4985658;28;20030;-61
2021/01/20 09:58:37;;;;;;;21.25;10.38;;;;;;;6.00;47.09;97587.63;4994276;28;20485;-62
2021/01/20 10:01:03;;;;;;;16.85;8.52;;;;;;;5.95;46.43;97549.28;5001872;28;20034;-62
2021/01/20 10:03:28;;;;;;;12.18;7.30;;;;;;;6.07;48.11;97640.97;4986951;28;20112;-61
2021/01/20 10:05:54;;;;;;;15.90;7.18;;;;;;;5.80;48.35;97659.75;4985701;28;20401;-63
2021/01/20 10:08:19;;;;;;;17.00;13.70;;;;;;;5.81;48.97;97622.88;4985375;28;20033;-62
2021/01/20 10:10:45;;;;;;;10.75;6.90;;;;;;;5.77;47.56;97627.44;4983340;28;20050;-61
2021/01/20 10:13:10;;;;;;;18.17;8.30;;;;;;;5.10;48.61;97497.22;4984042;28;20053;-61
2021/01/20 10:15:38;;;;;;;20.23;10.95;;;;;;;5.86;47.33;97614.50;4985052;28;20551;-61
2021/01/20 10:18:04;;;;;;;50.53;22.08;;;;;;;5.76;48.24;97598.31;4985260;28;20030;-62
2021/01/20 10:20:29;;;;;;;28.52;15.45;;;;;;;5.68;48.47;97601.88;4984588;28;20768;-64
2021/01/20 10:22:55;;;;;;;31.25;15.13;;;;;;;5.22;48.46;97604.47;4985325;28;20030;-63
2021/01/20 10:25:20;;;;;;;53.33;26.88;;;;;;;4.47;49.75;97517.81;4961422;28;20976;-66
2021/01/20 10:27:46;;;;;;;31.70;16.67;;;;;;;5.57;48.97;97595.09;4613607;28;10000479;-64
2021/01/20 10:30:11;;;;;;;27.67;15.93;;;;;;;5.01;47.87;97571.34;4946409;28;20078;-63
2021/01/20 10:32:37;;;;;;;20.00;9.55;;;;;;;4.94;48.28;97559.22;4948037;29;20482;-63
2021/01/20 10:35:08;;;;;;;11.75;6.60;;;;;;;4.44;49.59;97639.13;4948320;28;20042;-63
2021/01/20 10:37:33;;;;;;;13.52;6.78;;;;;;;4.30;51.48;97578.09;4948669;28;20035;-64
2021/01/20 10:39:59;;;;;;;14.15;7.10;;;;;;;5.19;49.98;97572.97;4947400;28;20045;-62
2021/01/20 10:42:24;;;;;;;15.68;7.55;;;;;;;5.42;49.17;97543.41;4948161;28;20039;-61
2021/01/20 10:44:49;;;;;;;18.20;9.82;;;;;;;6.21;48.14;97561.03;4960686;28;20540;-65
2021/01/20 10:47:15;;;;;;;20.30;10.23;;;;;;;5.44;46.71;97381.78;4966997;28;20027;-67
2021/01/20 10:49:40;;;;;;;18.20;10.18;;;;;;;6.53;46.35;97524.59;4953519;28;20046;-67
2021/01/20 10:52:06;;;;;;;27.77;15.18;;;;;;;6.94;46.42;97546.69;4964397;28;20038;-66
2021/01/20 10:54:31;;;;;;;19.15;9.95;;;;;;;6.92;45.18;97493.91;4966949;28;20129;-67
2021/01/20 10:56:58;;;;;;;25.33;15.25;;;;;;;7.49;45.14;97540.91;4964487;28;20153;-64
2021/01/20 10:59:23;;;;;;;23.10;12.15;;;;;;;7.66;44.62;97538.81;4964138;28;20047;-66
2021/01/20 11:01:48;;;;;;;16.45;8.50;;;;;;;7.84;43.31;97560.69;4965171;28;20034;-62
2021/01/20 11:04:16;;;;;;;13.48;8.15;;;;;;;8.20;41.46;97546.97;4973473;28;20545;-64
2021/01/20 11:06:41;;;;;;;19.95;11.45;;;;;;;8.12;42.89;97539.59;4966079;28;20031;-68
2021/01/20 11:09:06;;;;;;;14.05;8.82;;;;;;;8.26;42.60;97526.31;4966684;28;20418;-62
2021/01/20 11:11:32;;;;;;;23.00;10.23;;;;;;;8.44;42.47;97527.72;4965832;28;20023;-63
2021/01/20 11:13:57;;;;;;;33.47;22.67;;;;;;;8.75;41.63;97527.94;4975391;28;20042;-65
2021/01/20 11:16:23;;;;;;;35.58;22.45;;;;;;;8.84;41.00;97470.59;4966611;28;20306;-62
2021/01/20 11:18:50;;;;;;;40.85;21.17;;;;;;;8.44;39.95;97433.88;4966540;28;20050;-66
2021/01/20 11:21:15;;;;;;;20.77;12.20;;;;;;;8.75;40.06;97523.22;4964393;28;20035;-66
2021/01/20 11:23:45;;;;;;;17.08;10.75;;;;;;;8.77;39.96;97526.41;4966569;28;20064;-65
2021/01/20 11:26:11;;;;;;;20.67;10.43;;;;;;;8.72;40.33;97529.44;4965878;28;20065;-63